Terminal Aerodrome Forecast
Issued by NWS

Home | Current Version | Previous Version | Text Only | Print | Product List | Glossary On
Versions: 1 2 3 4 5 6 7 8 9 10 11 12 13 14
000
FTUS42 TJSJ 180520
TAFKPK
TAF
TKPK 180520Z 1806/1906 07005KT P6SM VCSH SCT018 SCT035
     FM181450 10012KT P6SM SCT022
     FM190000 07008KT P6SM SCT030
      AMD NOT SKED TIL 181100=

USA.gov is the U.S. government's official web portal to all federal, state and local government web resources and services.